sensor_id;sensor_type;location;lat;lon;timestamp;P1;durP1;ratioP1;P2;durP2;ratioP2
19883;SDS011;10104;50.732;10.174;2022-08-19T00:00:36;35.38;;;27.92;;
19883;SDS011;10104;50.732;10.174;2022-08-19T00:03:08;31.20;;;26.05;;
19883;SDS011;10104;50.732;10.174;2022-08-19T00:05:44;33.78;;;27.33;;
19883;SDS011;10104;50.732;10.174;2022-08-19T00:08:17;36.38;;;27.65;;
19883;SDS011;10104;50.732;10.174;2022-08-19T00:10:52;30.65;;;26.40;;
19883;SDS011;10104;50.732;10.174;2022-08-19T00:13:39;33.03;;;26.55;;
19883;SDS011;10104;50.732;10.174;2022-08-19T00:16:23;30.70;;;26.42;;
19883;SDS011;10104;50.732;10.174;2022-08-19T00:18:59;32.42;;;26.58;;
19883;SDS011;10104;50.732;10.174;2022-08-19T00:21:33;35.20;;;28.23;;
19883;SDS011;10104;50.732;10.174;2022-08-19T00:24:04;32.22;;;25.60;;
19883;SDS011;10104;50.732;10.174;2022-08-19T00:26:41;30.42;;;25.55;;
19883;SDS011;10104;50.732;10.174;2022-08-19T00:29:11;30.52;;;25.67;;
19883;SDS011;10104;50.732;10.174;2022-08-19T00:32:02;29.25;;;25.15;;
19883;SDS011;10104;50.732;10.174;2022-08-19T00:34:44;38.10;;;26.73;;
19883;SDS011;10104;50.732;10.174;2022-08-19T00:37:23;30.25;;;26.23;;
19883;SDS011;10104;50.732;10.174;2022-08-19T00:40:20;29.60;;;25.58;;
19883;SDS011;10104;50.732;10.174;2022-08-19T00:42:51;34.90;;;28.20;;
19883;SDS011;10104;50.732;10.174;2022-08-19T00:45:21;31.17;;;26.30;;
19883;SDS011;10104;50.732;10.174;2022-08-19T00:47:52;33.53;;;26.50;;
19883;SDS011;10104;50.732;10.174;2022-08-19T00:50:29;29.83;;;26.05;;
19883;SDS011;10104;50.732;10.174;2022-08-19T00:53:14;39.17;;;24.90;;
19883;SDS011;10104;50.732;10.174;2022-08-19T00:55:51;33.97;;;25.45;;
19883;SDS011;10104;50.732;10.174;2022-08-19T00:58:22;32.55;;;25.83;;
19883;SDS011;10104;50.732;10.174;2022-08-19T01:01:03;31.58;;;24.70;;
19883;SDS011;10104;50.732;10.174;2022-08-19T01:03:33;32.35;;;26.55;;
19883;SDS011;10104;50.732;10.174;2022-08-19T01:06:25;29.25;;;24.80;;
19883;SDS011;10104;50.732;10.174;2022-08-19T01:12:30;30.27;;;25.00;;
19883;SDS011;10104;50.732;10.174;2022-08-19T01:14:51;28.63;;;24.40;;
19883;SDS011;10104;50.732;10.174;2022-08-19T01:17:14;28.73;;;24.52;;
19883;SDS011;10104;50.732;10.174;2022-08-19T01:19:38;28.08;;;24.70;;
19883;SDS011;10104;50.732;10.174;2022-08-19T01:24:51;30.98;;;26.00;;
19883;SDS011;10104;50.732;10.174;2022-08-19T01:27:15;31.45;;;25.77;;
19883;SDS011;10104;50.732;10.174;2022-08-19T01:29:39;31.98;;;26.63;;
19883;SDS011;10104;50.732;10.174;2022-08-19T01:32:03;33.58;;;26.55;;
19883;SDS011;10104;50.732;10.174;2022-08-19T01:34:25;29.88;;;25.88;;
19883;SDS011;10104;50.732;10.174;2022-08-19T01:36:47;29.02;;;24.63;;
19883;SDS011;10104;50.732;10.174;2022-08-19T01:39:11;29.83;;;25.73;;
19883;SDS011;10104;50.732;10.174;2022-08-19T01:41:34;32.47;;;26.40;;
19883;SDS011;10104;50.732;10.174;2022-08-19T01:43:56;31.17;;;25.38;;
19883;SDS011;10104;50.732;10.174;2022-08-19T01:46:38;31.60;;;25.02;;
19883;SDS011;10104;50.732;10.174;2022-08-19T01:49:01;31.10;;;26.15;;
19883;SDS011;10104;50.732;10.174;2022-08-19T01:51:24;30.13;;;26.48;;
19883;SDS011;10104;50.732;10.174;2022-08-19T01:53:49;33.58;;;26.13;;
19883;SDS011;10104;50.732;10.174;2022-08-19T01:56:12;31.98;;;24.05;;
19883;SDS011;10104;50.732;10.174;2022-08-19T01:58:34;31.40;;;24.85;;
19883;SDS011;10104;50.732;10.174;2022-08-19T02:00:59;31.35;;;25.35;;
19883;SDS011;10104;50.732;10.174;2022-08-19T02:03:21;32.10;;;25.58;;
19883;SDS011;10104;50.732;10.174;2022-08-19T02:05:43;31.95;;;24.10;;
19883;SDS011;10104;50.732;10.174;2022-08-19T02:08:05;28.75;;;23.55;;
19883;SDS011;10104;50.732;10.174;2022-08-19T02:10:27;32.88;;;26.35;;
19883;SDS011;10104;50.732;10.174;2022-08-19T02:12:49;32.60;;;26.67;;
19883;SDS011;10104;50.732;10.174;2022-08-19T02:15:12;32.33;;;26.27;;
19883;SDS011;10104;50.732;10.174;2022-08-19T02:17:34;27.50;;;23.83;;
19883;SDS011;10104;50.732;10.174;2022-08-19T02:19:56;29.35;;;24.75;;
19883;SDS011;10104;50.732;10.174;2022-08-19T02:22:17;25.88;;;23.13;;
19883;SDS011;10104;50.732;10.174;2022-08-19T02:24:39;26.77;;;23.23;;
19883;SDS011;10104;50.732;10.174;2022-08-19T02:27:00;29.17;;;25.63;;
19883;SDS011;10104;50.732;10.174;2022-08-19T02:29:22;29.17;;;24.00;;
19883;SDS011;10104;50.732;10.174;2022-08-19T02:31:43;28.88;;;24.00;;
19883;SDS011;10104;50.732;10.174;2022-08-19T02:34:05;26.20;;;22.80;;
19883;SDS011;10104;50.732;10.174;2022-08-19T02:36:27;30.00;;;24.17;;
19883;SDS011;10104;50.732;10.174;2022-08-19T02:38:50;25.00;;;22.38;;
19883;SDS011;10104;50.732;10.174;2022-08-19T02:41:20;25.95;;;22.83;;
19883;SDS011;10104;50.732;10.174;2022-08-19T02:43:47;28.02;;;24.35;;
19883;SDS011;10104;50.732;10.174;2022-08-19T02:46:29;29.17;;;23.77;;
19883;SDS011;10104;50.732;10.174;2022-08-19T02:48:53;28.83;;;23.83;;
19883;SDS011;10104;50.732;10.174;2022-08-19T02:51:20;30.05;;;24.42;;
19883;SDS011;10104;50.732;10.174;2022-08-19T02:53:44;28.60;;;24.35;;
19883;SDS011;10104;50.732;10.174;2022-08-19T02:56:06;29.00;;;24.83;;
19883;SDS011;10104;50.732;10.174;2022-08-19T02:58:28;28.23;;;24.92;;
19883;SDS011;10104;50.732;10.174;2022-08-19T03:00:51;27.83;;;24.23;;
19883;SDS011;10104;50.732;10.174;2022-08-19T03:03:15;27.05;;;22.80;;
19883;SDS011;10104;50.732;10.174;2022-08-19T03:05:37;32.38;;;24.20;;
19883;SDS011;10104;50.732;10.174;2022-08-19T03:08:17;27.83;;;23.20;;
19883;SDS011;10104;50.732;10.174;2022-08-19T03:10:42;26.88;;;23.27;;
19883;SDS011;10104;50.732;10.174;2022-08-19T03:13:08;28.60;;;22.77;;
19883;SDS011;10104;50.732;10.174;2022-08-19T03:15:29;26.77;;;23.88;;
19883;SDS011;10104;50.732;10.174;2022-08-19T03:17:51;25.58;;;22.75;;
19883;SDS011;10104;50.732;10.174;2022-08-19T03:20:12;26.08;;;22.30;;
19883;SDS011;10104;50.732;10.174;2022-08-19T03:22:34;25.42;;;22.48;;
19883;SDS011;10104;50.732;10.174;2022-08-19T03:24:56;27.08;;;23.00;;
19883;SDS011;10104;50.732;10.174;2022-08-19T03:27:17;28.83;;;24.40;;
19883;SDS011;10104;50.732;10.174;2022-08-19T03:29:38;32.90;;;24.58;;
19883;SDS011;10104;50.732;10.174;2022-08-19T03:32:04;26.60;;;22.60;;
19883;SDS011;10104;50.732;10.174;2022-08-19T03:34:27;27.40;;;23.33;;
19883;SDS011;10104;50.732;10.174;2022-08-19T03:36:50;26.73;;;23.48;;
19883;SDS011;10104;50.732;10.174;2022-08-19T03:39:12;26.45;;;23.67;;
19883;SDS011;10104;50.732;10.174;2022-08-19T03:41:39;28.55;;;24.08;;
19883;SDS011;10104;50.732;10.174;2022-08-19T03:44:06;28.83;;;23.33;;
19883;SDS011;10104;50.732;10.174;2022-08-19T03:46:36;26.88;;;22.63;;
19883;SDS011;10104;50.732;10.174;2022-08-19T03:49:04;28.38;;;22.05;;
19883;SDS011;10104;50.732;10.174;2022-08-19T03:51:31;26.98;;;23.20;;
19883;SDS011;10104;50.732;10.174;2022-08-19T03:53:56;26.67;;;22.90;;
19883;SDS011;10104;50.732;10.174;2022-08-19T03:56:19;25.67;;;22.45;;
19883;SDS011;10104;50.732;10.174;2022-08-19T03:58:41;27.80;;;23.73;;
19883;SDS011;10104;50.732;10.174;2022-08-19T04:01:07;25.42;;;22.73;;
19883;SDS011;10104;50.732;10.174;2022-08-19T04:03:30;25.38;;;22.58;;
19883;SDS011;10104;50.732;10.174;2022-08-19T04:05:52;24.83;;;22.30;;
19883;SDS011;10104;50.732;10.174;2022-08-19T04:08:14;24.67;;;21.55;;
19883;SDS011;10104;50.732;10.174;2022-08-19T04:10:41;26.42;;;22.88;;
19883;SDS011;10104;50.732;10.174;2022-08-19T04:13:03;25.58;;;22.65;;
19883;SDS011;10104;50.732;10.174;2022-08-19T04:15:27;28.52;;;23.98;;
19883;SDS011;10104;50.732;10.174;2022-08-19T04:17:52;25.75;;;22.98;;
19883;SDS011;10104;50.732;10.174;2022-08-19T04:20:14;25.58;;;22.98;;
19883;SDS011;10104;50.732;10.174;2022-08-19T04:22:35;26.45;;;23.75;;
19883;SDS011;10104;50.732;10.174;2022-08-19T04:24:57;28.58;;;24.65;;
19883;SDS011;10104;50.732;10.174;2022-08-19T04:27:18;30.33;;;25.00;;
19883;SDS011;10104;50.732;10.174;2022-08-19T04:29:40;25.65;;;22.48;;
19883;SDS011;10104;50.732;10.174;2022-08-19T04:32:05;24.63;;;21.98;;
19883;SDS011;10104;50.732;10.174;2022-08-19T04:34:29;27.92;;;23.65;;
19883;SDS011;10104;50.732;10.174;2022-08-19T04:36:51;25.83;;;22.88;;
19883;SDS011;10104;50.732;10.174;2022-08-19T04:39:15;26.23;;;23.33;;
19883;SDS011;10104;50.732;10.174;2022-08-19T04:41:38;25.88;;;23.13;;
19883;SDS011;10104;50.732;10.174;2022-08-19T04:44:19;25.85;;;22.38;;
19883;SDS011;10104;50.732;10.174;2022-08-19T04:46:40;25.85;;;23.05;;
19883;SDS011;10104;50.732;10.174;2022-08-19T04:49:11;26.17;;;23.45;;
19883;SDS011;10104;50.732;10.174;2022-08-19T04:51:34;26.15;;;23.52;;
19883;SDS011;10104;50.732;10.174;2022-08-19T04:53:56;26.52;;;23.90;;
19883;SDS011;10104;50.732;10.174;2022-08-19T04:56:18;28.30;;;24.55;;
19883;SDS011;10104;50.732;10.174;2022-08-19T04:58:42;26.42;;;23.67;;
19883;SDS011;10104;50.732;10.174;2022-08-19T05:01:05;24.50;;;21.67;;
19883;SDS011;10104;50.732;10.174;2022-08-19T05:03:27;23.83;;;20.80;;
19883;SDS011;10104;50.732;10.174;2022-08-19T05:05:54;23.98;;;21.42;;
19883;SDS011;10104;50.732;10.174;2022-08-19T05:08:17;28.90;;;22.75;;
19883;SDS011;10104;50.732;10.174;2022-08-19T05:10:51;25.25;;;22.10;;
19883;SDS011;10104;50.732;10.174;2022-08-19T05:13:13;24.52;;;21.92;;
19883;SDS011;10104;50.732;10.174;2022-08-19T05:15:37;23.77;;;21.35;;
19883;SDS011;10104;50.732;10.174;2022-08-19T05:17:59;24.60;;;20.33;;
19883;SDS011;10104;50.732;10.174;2022-08-19T05:20:40;20.55;;;17.90;;
19883;SDS011;10104;50.732;10.174;2022-08-19T05:23:20;19.38;;;17.50;;
19883;SDS011;10104;50.732;10.174;2022-08-19T05:25:43;20.77;;;17.08;;
19883;SDS011;10104;50.732;10.174;2022-08-19T05:28:05;18.55;;;16.65;;
19883;SDS011;10104;50.732;10.174;2022-08-19T05:30:27;20.25;;;17.63;;
19883;SDS011;10104;50.732;10.174;2022-08-19T05:33:07;19.75;;;17.60;;
19883;SDS011;10104;50.732;10.174;2022-08-19T05:35:30;17.90;;;15.85;;
19883;SDS011;10104;50.732;10.174;2022-08-19T05:37:54;18.05;;;16.23;;
19883;SDS011;10104;50.732;10.174;2022-08-19T05:40:19;18.38;;;14.68;;
19883;SDS011;10104;50.732;10.174;2022-08-19T05:42:42;17.73;;;15.40;;
19883;SDS011;10104;50.732;10.174;2022-08-19T05:45:14;19.15;;;15.02;;
19883;SDS011;10104;50.732;10.174;2022-08-19T05:47:36;19.63;;;15.68;;
19883;SDS011;10104;50.732;10.174;2022-08-19T05:50:02;18.73;;;15.60;;
19883;SDS011;10104;50.732;10.174;2022-08-19T05:52:25;19.23;;;15.93;;
19883;SDS011;10104;50.732;10.174;2022-08-19T05:54:48;19.70;;;16.25;;
19883;SDS011;10104;50.732;10.174;2022-08-19T05:57:12;23.83;;;16.63;;
19883;SDS011;10104;50.732;10.174;2022-08-19T05:59:33;18.60;;;16.60;;
19883;SDS011;10104;50.732;10.174;2022-08-19T06:01:59;18.63;;;16.63;;
19883;SDS011;10104;50.732;10.174;2022-08-19T06:04:22;22.45;;;16.58;;
19883;SDS011;10104;50.732;10.174;2022-08-19T06:06:44;18.00;;;16.08;;
19883;SDS011;10104;50.732;10.174;2022-08-19T06:09:10;22.95;;;17.77;;
19883;SDS011;10104;50.732;10.174;2022-08-19T06:11:36;21.77;;;17.75;;
19883;SDS011;10104;50.732;10.174;2022-08-19T06:14:10;20.65;;;18.48;;
19883;SDS011;10104;50.732;10.174;2022-08-19T06:16:37;22.05;;;18.83;;
19883;SDS011;10104;50.732;10.174;2022-08-19T06:19:03;22.00;;;18.45;;
19883;SDS011;10104;50.732;10.174;2022-08-19T06:21:27;21.13;;;17.50;;
19883;SDS011;10104;50.732;10.174;2022-08-19T06:23:50;19.85;;;17.55;;
19883;SDS011;10104;50.732;10.174;2022-08-19T06:26:13;18.55;;;15.93;;
19883;SDS011;10104;50.732;10.174;2022-08-19T06:28:36;22.20;;;17.55;;
19883;SDS011;10104;50.732;10.174;2022-08-19T06:30:57;17.70;;;15.80;;
19883;SDS011;10104;50.732;10.174;2022-08-19T06:33:19;18.65;;;16.73;;
19883;SDS011;10104;50.732;10.174;2022-08-19T06:35:41;21.80;;;17.10;;
19883;SDS011;10104;50.732;10.174;2022-08-19T06:38:03;20.92;;;16.23;;
19883;SDS011;10104;50.732;10.174;2022-08-19T06:40:26;19.20;;;16.45;;
19883;SDS011;10104;50.732;10.174;2022-08-19T06:42:48;18.45;;;16.05;;
19883;SDS011;10104;50.732;10.174;2022-08-19T06:45:15;19.40;;;16.25;;
19883;SDS011;10104;50.732;10.174;2022-08-19T06:47:36;18.67;;;15.07;;
19883;SDS011;10104;50.732;10.174;2022-08-19T06:49:58;20.02;;;15.27;;
19883;SDS011;10104;50.732;10.174;2022-08-19T06:52:25;19.05;;;13.98;;
19883;SDS011;10104;50.732;10.174;2022-08-19T06:54:48;23.02;;;14.23;;
19883;SDS011;10104;50.732;10.174;2022-08-19T06:57:16;16.48;;;14.30;;
19883;SDS011;10104;50.732;10.174;2022-08-19T06:59:38;15.55;;;13.40;;
19883;SDS011;10104;50.732;10.174;2022-08-19T07:02:02;17.60;;;13.35;;
19883;SDS011;10104;50.732;10.174;2022-08-19T07:04:27;17.70;;;11.57;;
19883;SDS011;10104;50.732;10.174;2022-08-19T07:07:04;15.25;;;11.93;;
19883;SDS011;10104;50.732;10.174;2022-08-19T07:09:42;15.30;;;12.63;;
19883;SDS011;10104;50.732;10.174;2022-08-19T07:12:18;12.88;;;11.57;;
19883;SDS011;10104;50.732;10.174;2022-08-19T07:14:43;12.90;;;10.90;;
19883;SDS011;10104;50.732;10.174;2022-08-19T07:17:10;13.13;;;11.48;;
19883;SDS011;10104;50.732;10.174;2022-08-19T07:19:33;15.15;;;11.68;;
19883;SDS011;10104;50.732;10.174;2022-08-19T07:21:56;17.83;;;11.35;;
19883;SDS011;10104;50.732;10.174;2022-08-19T07:24:17;12.13;;;9.57;;
19883;SDS011;10104;50.732;10.174;2022-08-19T07:26:41;11.05;;;9.18;;
19883;SDS011;10104;50.732;10.174;2022-08-19T07:29:04;10.75;;;9.07;;
19883;SDS011;10104;50.732;10.174;2022-08-19T07:31:27;8.43;;;7.03;;
19883;SDS011;10104;50.732;10.174;2022-08-19T07:33:52;7.72;;;6.30;;
19883;SDS011;10104;50.732;10.174;2022-08-19T07:36:17;8.75;;;6.28;;
19883;SDS011;10104;50.732;10.174;2022-08-19T07:38:44;7.15;;;6.45;;
19883;SDS011;10104;50.732;10.174;2022-08-19T07:41:10;8.00;;;6.35;;
19883;SDS011;10104;50.732;10.174;2022-08-19T07:43:33;7.78;;;6.22;;
19883;SDS011;10104;50.732;10.174;2022-08-19T07:45:55;8.02;;;6.07;;
19883;SDS011;10104;50.732;10.174;2022-08-19T07:48:19;7.68;;;6.60;;
19883;SDS011;10104;50.732;10.174;2022-08-19T07:50:41;8.43;;;6.43;;
19883;SDS011;10104;50.732;10.174;2022-08-19T07:53:03;8.30;;;6.88;;
19883;SDS011;10104;50.732;10.174;2022-08-19T07:55:25;7.32;;;6.30;;
19883;SDS011;10104;50.732;10.174;2022-08-19T07:58:03;9.70;;;6.30;;
19883;SDS011;10104;50.732;10.174;2022-08-19T08:00:25;7.72;;;6.85;;
19883;SDS011;10104;50.732;10.174;2022-08-19T08:02:47;10.07;;;6.80;;
19883;SDS011;10104;50.732;10.174;2022-08-19T08:05:10;12.25;;;6.68;;
19883;SDS011;10104;50.732;10.174;2022-08-19T08:07:50;7.07;;;5.95;;
19883;SDS011;10104;50.732;10.174;2022-08-19T08:10:47;6.60;;;5.05;;
19883;SDS011;10104;50.732;10.174;2022-08-19T08:13:14;5.75;;;4.53;;
19883;SDS011;10104;50.732;10.174;2022-08-19T08:15:36;7.28;;;5.00;;
19883;SDS011;10104;50.732;10.174;2022-08-19T08:18:03;5.45;;;4.78;;
19883;SDS011;10104;50.732;10.174;2022-08-19T08:20:24;7.57;;;4.50;;
19883;SDS011;10104;50.732;10.174;2022-08-19T08:22:46;4.15;;;3.75;;
19883;SDS011;10104;50.732;10.174;2022-08-19T08:25:27;3.75;;;3.35;;
19883;SDS011;10104;50.732;10.174;2022-08-19T08:27:52;7.85;;;3.88;;
19883;SDS011;10104;50.732;10.174;2022-08-19T08:30:17;3.83;;;3.30;;
19883;SDS011;10104;50.732;10.174;2022-08-19T08:32:41;5.45;;;3.28;;
19883;SDS011;10104;50.732;10.174;2022-08-19T08:35:07;5.15;;;3.22;;
19883;SDS011;10104;50.732;10.174;2022-08-19T08:37:30;4.88;;;2.90;;
19883;SDS011;10104;50.732;10.174;2022-08-19T08:39:52;4.90;;;3.63;;
19883;SDS011;10104;50.732;10.174;2022-08-19T08:42:20;5.07;;;4.10;;
19883;SDS011;10104;50.732;10.174;2022-08-19T08:44:54;4.05;;;3.67;;
19883;SDS011;10104;50.732;10.174;2022-08-19T08:47:21;4.25;;;3.72;;
19883;SDS011;10104;50.732;10.174;2022-08-19T08:49:59;6.60;;;3.80;;
19883;SDS011;10104;50.732;10.174;2022-08-19T08:52:27;7.60;;;3.45;;
19883;SDS011;10104;50.732;10.174;2022-08-19T08:54:54;5.30;;;3.95;;
19883;SDS011;10104;50.732;10.174;2022-08-19T08:57:32;5.35;;;3.97;;
19883;SDS011;10104;50.732;10.174;2022-08-19T09:00:06;4.70;;;3.33;;
19883;SDS011;10104;50.732;10.174;2022-08-19T09:02:36;5.22;;;3.40;;
19883;SDS011;10104;50.732;10.174;2022-08-19T09:04:57;4.78;;;3.08;;
19883;SDS011;10104;50.732;10.174;2022-08-19T09:07:25;3.85;;;3.50;;
19883;SDS011;10104;50.732;10.174;2022-08-19T09:10:02;4.53;;;3.67;;
19883;SDS011;10104;50.732;10.174;2022-08-19T09:12:34;4.30;;;3.90;;
19883;SDS011;10104;50.732;10.174;2022-08-19T09:15:08;4.50;;;3.47;;
19883;SDS011;10104;50.732;10.174;2022-08-19T09:17:32;10.65;;;3.97;;
19883;SDS011;10104;50.732;10.174;2022-08-19T09:19:58;5.47;;;3.67;;
19883;SDS011;10104;50.732;10.174;2022-08-19T09:22:29;4.90;;;3.72;;
19883;SDS011;10104;50.732;10.174;2022-08-19T09:24:51;6.32;;;3.75;;
19883;SDS011;10104;50.732;10.174;2022-08-19T09:27:15;6.32;;;4.15;;
19883;SDS011;10104;50.732;10.174;2022-08-19T09:29:38;3.88;;;3.53;;
19883;SDS011;10104;50.732;10.174;2022-08-19T09:32:00;6.22;;;3.28;;
19883;SDS011;10104;50.732;10.174;2022-08-19T09:34:22;4.88;;;3.40;;
19883;SDS011;10104;50.732;10.174;2022-08-19T09:36:44;4.97;;;3.53;;
19883;SDS011;10104;50.732;10.174;2022-08-19T09:39:05;4.72;;;3.50;;
19883;SDS011;10104;50.732;10.174;2022-08-19T09:41:36;5.13;;;3.85;;
19883;SDS011;10104;50.732;10.174;2022-08-19T09:43:58;6.78;;;3.67;;
19883;SDS011;10104;50.732;10.174;2022-08-19T09:46:20;5.10;;;3.63;;
19883;SDS011;10104;50.732;10.174;2022-08-19T09:48:45;4.65;;;3.63;;
19883;SDS011;10104;50.732;10.174;2022-08-19T09:51:10;5.63;;;3.97;;
19883;SDS011;10104;50.732;10.174;2022-08-19T09:53:37;4.13;;;3.45;;
19883;SDS011;10104;50.732;10.174;2022-08-19T09:56:00;7.15;;;3.65;;
19883;SDS011;10104;50.732;10.174;2022-08-19T09:58:24;5.10;;;3.38;;
19883;SDS011;10104;50.732;10.174;2022-08-19T10:00:48;6.53;;;3.05;;
19883;SDS011;10104;50.732;10.174;2022-08-19T10:03:11;6.72;;;3.05;;
19883;SDS011;10104;50.732;10.174;2022-08-19T10:05:33;5.20;;;3.38;;
19883;SDS011;10104;50.732;10.174;2022-08-19T10:08:22;5.07;;;4.00;;
19883;SDS011;10104;50.732;10.174;2022-08-19T10:10:47;4.15;;;3.33;;
19883;SDS011;10104;50.732;10.174;2022-08-19T10:13:09;6.00;;;3.85;;
19883;SDS011;10104;50.732;10.174;2022-08-19T10:15:31;6.05;;;3.20;;
19883;SDS011;10104;50.732;10.174;2022-08-19T10:18:07;4.80;;;3.70;;
19883;SDS011;10104;50.732;10.174;2022-08-19T10:20:29;3.50;;;3.00;;
19883;SDS011;10104;50.732;10.174;2022-08-19T10:22:51;4.78;;;3.50;;
19883;SDS011;10104;50.732;10.174;2022-08-19T10:25:13;3.35;;;3.05;;
19883;SDS011;10104;50.732;10.174;2022-08-19T10:27:35;5.68;;;3.03;;
19883;SDS011;10104;50.732;10.174;2022-08-19T10:29:59;7.13;;;3.65;;
19883;SDS011;10104;50.732;10.174;2022-08-19T10:32:22;5.93;;;3.95;;
19883;SDS011;10104;50.732;10.174;2022-08-19T10:34:54;5.63;;;3.92;;
19883;SDS011;10104;50.732;10.174;2022-08-19T10:37:17;5.90;;;3.75;;
19883;SDS011;10104;50.732;10.174;2022-08-19T10:39:49;4.20;;;3.20;;
19883;SDS011;10104;50.732;10.174;2022-08-19T10:42:10;3.45;;;2.90;;
19883;SDS011;10104;50.732;10.174;2022-08-19T10:44:34;3.33;;;2.95;;
19883;SDS011;10104;50.732;10.174;2022-08-19T10:46:56;3.40;;;3.10;;
19883;SDS011;10104;50.732;10.174;2022-08-19T10:49:19;5.25;;;3.17;;
19883;SDS011;10104;50.732;10.174;2022-08-19T10:51:42;4.78;;;3.70;;
19883;SDS011;10104;50.732;10.174;2022-08-19T10:54:23;5.10;;;2.92;;
19883;SDS011;10104;50.732;10.174;2022-08-19T10:57:05;5.32;;;3.47;;
19883;SDS011;10104;50.732;10.174;2022-08-19T10:59:27;4.47;;;3.50;;
19883;SDS011;10104;50.732;10.174;2022-08-19T11:01:59;3.70;;;3.10;;
19883;SDS011;10104;50.732;10.174;2022-08-19T11:04:22;4.05;;;3.08;;
19883;SDS011;10104;50.732;10.174;2022-08-19T11:06:49;3.10;;;2.85;;
19883;SDS011;10104;50.732;10.174;2022-08-19T11:09:11;4.55;;;3.15;;
19883;SDS011;10104;50.732;10.174;2022-08-19T11:11:33;4.15;;;3.30;;
19883;SDS011;10104;50.732;10.174;2022-08-19T11:14:01;4.15;;;2.88;;
19883;SDS011;10104;50.732;10.174;2022-08-19T11:16:24;7.07;;;3.85;;
19883;SDS011;10104;50.732;10.174;2022-08-19T11:18:52;4.25;;;3.00;;
19883;SDS011;10104;50.732;10.174;2022-08-19T11:21:20;3.72;;;2.80;;
19883;SDS011;10104;50.732;10.174;2022-08-19T11:23:47;5.85;;;2.60;;
19883;SDS011;10104;50.732;10.174;2022-08-19T11:26:10;3.55;;;2.47;;
19883;SDS011;10104;50.732;10.174;2022-08-19T11:28:32;2.97;;;2.35;;
19883;SDS011;10104;50.732;10.174;2022-08-19T11:30:54;3.40;;;2.65;;
19883;SDS011;10104;50.732;10.174;2022-08-19T11:33:16;14.60;;;2.97;;
19883;SDS011;10104;50.732;10.174;2022-08-19T11:35:38;8.32;;;2.90;;
19883;SDS011;10104;50.732;10.174;2022-08-19T11:38:01;10.25;;;3.00;;
19883;SDS011;10104;50.732;10.174;2022-08-19T11:40:28;5.80;;;2.65;;
19883;SDS011;10104;50.732;10.174;2022-08-19T11:42:49;4.30;;;2.63;;
19883;SDS011;10104;50.732;10.174;2022-08-19T11:45:17;2.85;;;2.35;;
19883;SDS011;10104;50.732;10.174;2022-08-19T11:47:39;4.43;;;2.53;;
19883;SDS011;10104;50.732;10.174;2022-08-19T11:50:00;3.78;;;2.90;;
19883;SDS011;10104;50.732;10.174;2022-08-19T11:52:22;3.60;;;2.55;;
19883;SDS011;10104;50.732;10.174;2022-08-19T11:54:43;6.72;;;2.75;;
19883;SDS011;10104;50.732;10.174;2022-08-19T11:57:05;4.35;;;2.80;;
19883;SDS011;10104;50.732;10.174;2022-08-19T11:59:26;3.15;;;2.83;;
19883;SDS011;10104;50.732;10.174;2022-08-19T12:01:49;6.13;;;2.95;;
19883;SDS011;10104;50.732;10.174;2022-08-19T12:04:11;4.55;;;2.47;;
19883;SDS011;10104;50.732;10.174;2022-08-19T12:06:33;5.32;;;2.83;;
19883;SDS011;10104;50.732;10.174;2022-08-19T12:08:55;4.22;;;2.55;;
19883;SDS011;10104;50.732;10.174;2022-08-19T12:11:18;3.50;;;2.20;;
19883;SDS011;10104;50.732;10.174;2022-08-19T12:13:40;2.55;;;2.35;;
19883;SDS011;10104;50.732;10.174;2022-08-19T12:16:09;4.38;;;3.63;;
19883;SDS011;10104;50.732;10.174;2022-08-19T12:18:33;2.25;;;1.95;;
19883;SDS011;10104;50.732;10.174;2022-08-19T12:20:55;3.30;;;2.40;;
19883;SDS011;10104;50.732;10.174;2022-08-19T12:23:17;2.90;;;2.00;;
19883;SDS011;10104;50.732;10.174;2022-08-19T12:25:43;2.28;;;2.00;;
19883;SDS011;10104;50.732;10.174;2022-08-19T12:28:11;2.33;;;1.92;;
19883;SDS011;10104;50.732;10.174;2022-08-19T12:30:32;3.00;;;2.20;;
19883;SDS011;10104;50.732;10.174;2022-08-19T12:32:53;2.50;;;2.30;;
19883;SDS011;10104;50.732;10.174;2022-08-19T12:35:15;3.92;;;2.25;;
19883;SDS011;10104;50.732;10.174;2022-08-19T12:37:37;4.40;;;2.75;;
19883;SDS011;10104;50.732;10.174;2022-08-19T12:39:59;3.38;;;2.30;;
19883;SDS011;10104;50.732;10.174;2022-08-19T12:42:21;3.58;;;2.20;;
19883;SDS011;10104;50.732;10.174;2022-08-19T12:44:43;2.72;;;1.92;;
19883;SDS011;10104;50.732;10.174;2022-08-19T12:47:05;4.03;;;2.50;;
19883;SDS011;10104;50.732;10.174;2022-08-19T12:49:30;2.20;;;2.00;;
19883;SDS011;10104;50.732;10.174;2022-08-19T12:52:14;5.88;;;2.10;;
19883;SDS011;10104;50.732;10.174;2022-08-19T12:54:43;2.28;;;2.08;;
19883;SDS011;10104;50.732;10.174;2022-08-19T12:57:07;4.32;;;2.30;;
19883;SDS011;10104;50.732;10.174;2022-08-19T12:59:29;3.42;;;2.25;;
19883;SDS011;10104;50.732;10.174;2022-08-19T13:01:50;3.67;;;2.30;;
19883;SDS011;10104;50.732;10.174;2022-08-19T13:04:12;3.13;;;2.03;;
19883;SDS011;10104;50.732;10.174;2022-08-19T13:06:33;3.88;;;2.10;;
19883;SDS011;10104;50.732;10.174;2022-08-19T13:08:54;2.10;;;1.90;;
19883;SDS011;10104;50.732;10.174;2022-08-19T13:11:20;2.25;;;2.03;;
19883;SDS011;10104;50.732;10.174;2022-08-19T13:13:45;3.70;;;2.00;;
19883;SDS011;10104;50.732;10.174;2022-08-19T13:16:09;3.63;;;2.08;;
19883;SDS011;10104;50.732;10.174;2022-08-19T13:18:32;2.70;;;2.50;;
19883;SDS011;10104;50.732;10.174;2022-08-19T13:20:54;2.53;;;2.15;;
19883;SDS011;10104;50.732;10.174;2022-08-19T13:23:15;3.53;;;1.90;;
19883;SDS011;10104;50.732;10.174;2022-08-19T13:25:37;3.17;;;1.80;;
19883;SDS011;10104;50.732;10.174;2022-08-19T13:27:58;3.45;;;2.20;;
19883;SDS011;10104;50.732;10.174;2022-08-19T13:30:20;2.90;;;2.20;;
19883;SDS011;10104;50.732;10.174;2022-08-19T13:33:01;3.38;;;1.90;;
19883;SDS011;10104;50.732;10.174;2022-08-19T13:35:32;4.38;;;2.00;;
19883;SDS011;10104;50.732;10.174;2022-08-19T13:37:54;3.75;;;2.30;;
19883;SDS011;10104;50.732;10.174;2022-08-19T13:40:20;2.85;;;2.22;;
19883;SDS011;10104;50.732;10.174;2022-08-19T13:42:45;1.98;;;1.88;;
19883;SDS011;10104;50.732;10.174;2022-08-19T13:45:09;3.97;;;2.22;;
19883;SDS011;10104;50.732;10.174;2022-08-19T13:47:31;3.40;;;2.10;;
19883;SDS011;10104;50.732;10.174;2022-08-19T13:49:55;2.63;;;2.20;;
19883;SDS011;10104;50.732;10.174;2022-08-19T13:52:16;2.30;;;2.10;;
19883;SDS011;10104;50.732;10.174;2022-08-19T13:54:38;2.47;;;2.28;;
19883;SDS011;10104;50.732;10.174;2022-08-19T13:56:59;5.68;;;2.50;;
19883;SDS011;10104;50.732;10.174;2022-08-19T13:59:21;2.72;;;1.95;;
19883;SDS011;10104;50.732;10.174;2022-08-19T14:01:42;3.63;;;2.08;;
19883;SDS011;10104;50.732;10.174;2022-08-19T14:04:04;2.28;;;2.08;;
19883;SDS011;10104;50.732;10.174;2022-08-19T14:06:26;3.10;;;2.00;;
19883;SDS011;10104;50.732;10.174;2022-08-19T14:08:48;3.42;;;1.83;;
19883;SDS011;10104;50.732;10.174;2022-08-19T14:11:10;2.58;;;2.03;;
19883;SDS011;10104;50.732;10.174;2022-08-19T14:13:31;4.93;;;2.30;;
19883;SDS011;10104;50.732;10.174;2022-08-19T14:15:54;3.58;;;2.17;;
19883;SDS011;10104;50.732;10.174;2022-08-19T14:18:17;2.60;;;2.03;;